Time;durP1;ratioP1;P1;durP2;ratioP2;P2;SDS_P1;SDS_P2;PMS_P1;PMS_P2;Temp;Humidity;BMP_temperature;BMP_pressure;BME280_temperature;BME280_humidity;BME280_pressure;Samples;Min_cycle;Max_cycle;Signal;HPM_P1;HPM_P2
2023/02/19 00:08:43;;;;;;;5.9;2.9;;;;;;;7.5;89.5;98510;;;;
2023/02/19 00:18:43;;;;;;;5.9;2.9;;;;;;;7.5;89.6;98500;;;;
2023/02/19 00:29:43;;;;;;;5.9;2.9;;;;;;;7.4;89.8;98510;;;;
2023/02/19 00:40:43;;;;;;;7.7;4.1;;;;;;;7.2;90.5;98490;;;;
2023/02/19 00:51:43;;;;;;;7.7;4.1;;;;;;;7.1;90.8;98490;;;;
2023/02/19 01:02:43;;;;;;;6.4;3.4;;;;;;;6.9;90.5;98480;;;;
2023/02/19 01:13:43;;;;;;;6.4;3.4;;;;;;;6.9;90;98470;;;;
2023/02/19 01:23:43;;;;;;;6.4;3.4;;;;;;;6.9;90;98460;;;;
2023/02/19 01:34:43;;;;;;;4.2;3;;;;;;;7;90;98460;;;;
2023/02/19 01:44:44;;;;;;;4.2;3;;;;;;;7;90.3;98450;;;;
2023/02/19 01:55:43;;;;;;;4.2;3;;;;;;;6.9;90.8;98440;;;;
2023/02/19 02:05:43;;;;;;;5.3;2.5;;;;;;;6.9;90.8;98440;;;;
2023/02/19 02:16:43;;;;;;;5.3;2.5;;;;;;;6.9;90.9;98430;;;;
2023/02/19 02:26:43;;;;;;;5.3;2.5;;;;;;;6.9;90.8;98430;;;;
2023/02/19 02:37:43;;;;;;;4.6;2.5;;;;;;;7;90.7;98430;;;;
2023/02/19 02:47:43;;;;;;;4.6;2.5;;;;;;;7;91.1;98420;;;;
2023/02/19 02:57:43;;;;;;;4.6;2.5;;;;;;;7;91.3;98410;;;;
2023/02/19 03:07:44;;;;;;;4.1;2.4;;;;;;;7.1;91;98410;;;;
2023/02/19 03:27:44;;;;;;;4.1;2.4;;;;;;;7.1;90.5;98390;;;;
2023/02/19 03:38:44;;;;;;;8.5;4.8;;;;;;;7.2;90.3;98380;;;;
2023/02/19 03:49:43;;;;;;;8.5;4.8;;;;;;;7.2;90.3;98370;;;;
2023/02/19 03:59:43;;;;;;;8.5;4.8;;;;;;;7.1;90.6;98370;;;;
2023/02/19 04:09:43;;;;;;;5.6;3.4;;;;;;;7.2;91;98360;;;;
2023/02/19 04:19:43;;;;;;;5.6;3.4;;;;;;;7.1;91.3;98370;;;;
2023/02/19 04:30:43;;;;;;;6.9;4.2;;;;;;;7.1;91.6;98350;;;;
2023/02/19 04:41:43;;;;;;;6.9;4.2;;;;;;;7;91.7;98330;;;;
2023/02/19 04:52:44;;;;;;;6.9;4.2;;;;;;;7;91.9;98330;;;;
2023/02/19 05:02:43;;;;;;;5.3;3;;;;;;;6.9;92.2;98340;;;;
2023/02/19 05:12:43;;;;;;;5.3;3;;;;;;;6.9;92.4;98330;;;;
2023/02/19 05:23:44;;;;;;;5.3;3;;;;;;;6.9;92.3;98310;;;;
2023/02/19 05:33:47;;;;;;;5.5;3.3;;;;;;;6.8;92.5;98290;;;;
2023/02/19 05:44:44;;;;;;;5.5;3.3;;;;;;;6.9;92.5;98270;;;;
2023/02/19 05:55:44;;;;;;;5.5;3.3;;;;;;;6.9;92.4;98260;;;;
2023/02/19 06:06:44;;;;;;;7.8;4.9;;;;;;;7;92.3;98270;;;;
2023/02/19 06:17:43;;;;;;;7.8;4.9;;;;;;;7;92.1;98250;;;;
2023/02/19 06:28:44;;;;;;;7.8;4.9;;;;;;;7.1;92.1;98240;;;;
2023/02/19 06:39:44;;;;;;;8.1;5.3;;;;;;;7.2;92.1;98240;;;;
2023/02/19 06:49:44;;;;;;;8.1;5.3;;;;;;;7.3;91.7;98250;;;;
2023/02/19 06:59:44;;;;;;;8.1;5.3;;;;;;;7.3;91.4;98260;;;;
2023/02/19 07:09:44;;;;;;;7.2;5;;;;;;;7.4;91.3;98260;;;;
2023/02/19 07:19:44;;;;;;;7.2;5;;;;;;;7.4;91.2;98260;;;;
2023/02/19 07:30:44;;;;;;;8.4;7;;;;;;;7.7;91.3;98240;;;;
2023/02/19 07:40:44;;;;;;;8.4;7;;;;;;;7.7;90.9;98260;;;;
2023/02/19 07:50:45;;;;;;;8.4;7;;;;;;;7.7;90.7;98250;;;;
2023/02/19 08:22:44;;;;;;;17.4;10.5;;;;;;;8.3;89.6;98220;;;;
2023/02/19 08:32:44;;;;;;;11.7;9;;;;;;;8.3;89.5;98210;;;;
2023/02/19 08:42:44;;;;;;;11.7;9;;;;;;;8.6;89.7;98210;;;;
2023/02/19 08:53:44;;;;;;;11.7;9;;;;;;;8.8;89;98220;;;;
2023/02/19 09:03:44;;;;;;;8.2;5.1;;;;;;;8.8;88.3;98210;;;;
2023/02/19 09:13:44;;;;;;;8.2;5.1;;;;;;;8.8;88.3;98220;;;;
2023/02/19 09:24:44;;;;;;;8.2;5.1;;;;;;;8.7;87.7;98220;;;;
2023/02/19 09:35:44;;;;;;;6.5;3.6;;;;;;;8.6;87.6;98220;;;;
2023/02/19 09:46:44;;;;;;;6.5;3.6;;;;;;;8.4;88.4;98220;;;;
2023/02/19 09:56:44;;;;;;;6.5;3.6;;;;;;;8.4;89.2;98230;;;;
2023/02/19 10:06:44;;;;;;;8.8;7;;;;;;;8.4;90.1;98240;;;;
2023/02/19 10:17:44;;;;;;;8.8;7;;;;;;;8.2;89.8;98250;;;;
2023/02/19 10:28:44;;;;;;;8.8;7;;;;;;;8.2;88.3;98250;;;;
2023/02/19 10:38:44;;;;;;;12.5;10;;;;;;;8.1;87.9;98260;;;;
2023/02/19 10:48:44;;;;;;;12.5;10;;;;;;;7.8;87.8;98280;;;;
2023/02/19 10:59:44;;;;;;;12.5;10;;;;;;;7.6;88.3;98300;;;;
2023/02/19 11:09:44;;;;;;;5.2;3.6;;;;;;;7.4;88.3;98310;;;;
2023/02/19 11:20:44;;;;;;;5.2;3.6;;;;;;;7.3;86;98340;;;;
2023/02/19 11:31:45;;;;;;;4.7;2.1;;;;;;;7.2;85.7;98340;;;;
2023/02/19 11:41:44;;;;;;;4.7;2.1;;;;;;;6.9;85.9;98370;;;;
2023/02/19 11:51:44;;;;;;;4.7;2.1;;;;;;;6.7;84.8;98380;;;;
2023/02/19 12:01:44;;;;;;;3.6;1.7;;;;;;;6.8;84.5;98390;;;;
2023/02/19 12:11:44;;;;;;;3.6;1.7;;;;;;;6.9;84;98410;;;;
2023/02/19 12:22:44;;;;;;;3.6;1.7;;;;;;;6.8;84.2;98430;;;;
2023/02/19 12:32:44;;;;;;;3.5;2;;;;;;;6.6;84.3;98460;;;;
2023/02/19 12:43:44;;;;;;;3.5;2;;;;;;;6.4;84.8;98470;;;;
2023/02/19 12:53:44;;;;;;;3.5;2;;;;;;;6.4;84.3;98480;;;;
2023/02/19 13:04:44;;;;;;;5.6;2.6;;;;;;;6.1;83.2;98490;;;;
2023/02/19 13:15:44;;;;;;;5.6;2.6;;;;;;;5.9;82.7;98490;;;;
2023/02/19 13:26:44;;;;;;;5.6;2.6;;;;;;;6.1;82.9;98500;;;;
2023/02/19 13:37:44;;;;;;;8.1;4.1;;;;;;;5.8;82.4;98520;;;;
2023/02/19 13:47:44;;;;;;;8.1;4.1;;;;;;;5.8;83.1;98530;;;;
2023/02/19 13:58:44;;;;;;;8.1;4.1;;;;;;;5.8;82.4;98560;;;;
2023/02/19 14:08:44;;;;;;;5.9;3.3;;;;;;;5.6;82.8;98570;;;;
2023/02/19 14:18:44;;;;;;;5.9;3.3;;;;;;;5.5;82;98600;;;;
2023/02/19 14:28:44;;;;;;;5.9;3.3;;;;;;;5.2;80.6;98630;;;;
2023/02/19 14:38:44;;;;;;;4.2;2;;;;;;;4.9;82.2;98660;;;;
2023/02/19 14:49:45;;;;;;;4.2;2;;;;;;;4.5;80.8;98680;;;;
2023/02/19 15:00:44;;;;;;;3.5;1.6;;;;;;;4.4;80.3;98700;;;;
2023/02/19 15:10:44;;;;;;;3.5;1.6;;;;;;;4.3;81.1;98710;;;;
2023/02/19 15:20:44;;;;;;;3.5;1.6;;;;;;;4.2;80.9;98730;;;;
2023/02/19 15:31:44;;;;;;;6.6;3.3;;;;;;;4.2;79.9;98750;;;;
2023/02/19 15:42:44;;;;;;;6.6;3.3;;;;;;;4.3;79.8;98760;;;;
2023/02/19 15:53:44;;;;;;;;;;;;;;;;;;;;;
2023/02/19 16:03:44;;;;;;;9.9;4.9;;;;;;;4.2;78.2;98790;;;;
2023/02/19 16:13:44;;;;;;;9.9;4.9;;;;;;;4.1;79;98800;;;;
2023/02/19 16:23:44;;;;;;;9.9;4.9;;;;;;;4;79.2;98830;;;;
2023/02/19 16:34:45;;;;;;;8.6;4.4;;;;;;;3.9;79.5;98860;;;;
2023/02/19 16:45:44;;;;;;;8.6;4.4;;;;;;;3.9;79.4;98880;;;;
2023/02/19 16:55:44;;;;;;;8.6;4.4;;;;;;;3.9;78.8;98900;;;;
2023/02/19 17:06:44;;;;;;;10.8;6.1;;;;;;;3.8;78.1;98920;;;;
2023/02/19 17:17:44;;;;;;;10.8;6.1;;;;;;;3.6;78.5;98940;;;;
2023/02/19 17:27:44;;;;;;;10.8;6.1;;;;;;;3.7;78.4;98970;;;;
2023/02/19 17:37:44;;;;;;;9.4;4.4;;;;;;;3.6;76.7;98980;;;;
2023/02/19 17:47:44;;;;;;;9.4;4.4;;;;;;;3.5;75.4;98990;;;;
2023/02/19 17:57:44;;;;;;;9.4;4.4;;;;;;;3.6;74.2;99010;;;;
2023/02/19 18:07:44;;;;;;;9.1;4.3;;;;;;;3.6;74.6;99030;;;;
2023/02/19 18:18:44;;;;;;;9.1;4.3;;;;;;;3.5;74.8;99040;;;;
2023/02/19 18:28:44;;;;;;;9.1;4.3;;;;;;;3.4;75.4;99050;;;;
2023/02/19 18:38:45;;;;;;;11.6;5.9;;;;;;;3.3;76.1;99070;;;;
2023/02/19 18:49:44;;;;;;;11.6;5.9;;;;;;;3;78.2;99090;;;;
2023/02/19 19:00:44;;;;;;;12.8;6.3;;;;;;;3;78.6;99100;;;;
2023/02/19 19:11:45;;;;;;;12.8;6.3;;;;;;;3.1;78.9;99100;;;;
2023/02/19 19:21:44;;;;;;;12.8;6.3;;;;;;;3.1;79.1;99110;;;;
2023/02/19 19:32:45;;;;;;;12;6.8;;;;;;;2.9;79.5;99130;;;;
2023/02/19 19:43:44;;;;;;;12;6.8;;;;;;;2.9;79.5;99140;;;;
2023/02/19 19:54:44;;;;;;;12;6.8;;;;;;;2.8;79.3;99150;;;;
2023/02/19 20:04:44;;;;;;;13.3;5.9;;;;;;;2.6;80.5;99170;;;;
2023/02/19 20:14:44;;;;;;;13.3;5.9;;;;;;;2.4;81;99180;;;;
2023/02/19 20:25:44;;;;;;;13.3;5.9;;;;;;;2.2;81.3;99180;;;;
2023/02/19 20:35:44;;;;;;;12.7;5.4;;;;;;;2;81.5;99190;;;;
2023/02/19 20:45:46;;;;;;;12.7;5.4;;;;;;;1.8;81.4;99180;;;;
2023/02/19 20:56:44;;;;;;;12.7;5.4;;;;;;;1.7;81.3;99200;;;;
2023/02/19 21:07:44;;;;;;;11.7;5.6;;;;;;;1.6;81.6;99210;;;;
2023/02/19 21:17:44;;;;;;;11.7;5.6;;;;;;;1.5;81.9;99230;;;;
2023/02/19 21:28:44;;;;;;;9.6;4.9;;;;;;;1.4;82;99240;;;;
2023/02/19 21:39:45;;;;;;;9.6;4.9;;;;;;;1.4;82.1;99250;;;;
2023/02/19 21:49:44;;;;;;;9.6;4.9;;;;;;;1.7;82.3;99270;;;;
2023/02/19 22:00:44;;;;;;;32.4;15.2;;;;;;;1.8;82.2;99270;;;;
2023/02/19 22:10:44;;;;;;;32.4;15.2;;;;;;;1.7;82.1;99280;;;;
2023/02/19 22:21:44;;;;;;;32.4;15.2;;;;;;;1.6;82.4;99290;;;;
2023/02/19 22:31:44;;;;;;;27.7;12.9;;;;;;;1.5;82.9;99290;;;;
2023/02/19 22:41:44;;;;;;;27.7;12.9;;;;;;;1.4;83.3;99310;;;;
2023/02/19 22:52:44;;;;;;;27.7;12.9;;;;;;;1.4;83.6;99330;;;;
2023/02/19 23:02:47;;;;;;;17.5;9.6;;;;;;;1.4;83.6;99340;;;;
2023/02/19 23:13:44;;;;;;;17.5;9.6;;;;;;;1.3;83.5;99340;;;;
2023/02/19 23:23:44;;;;;;;17.5;9.6;;;;;;;1.4;83.2;99340;;;;
2023/02/19 23:34:44;;;;;;;15.7;7.5;;;;;;;1.4;82.9;99360;;;;
2023/02/19 23:44:44;;;;;;;15.7;7.5;;;;;;;1.5;82.9;99360;;;;
2023/02/19 23:54:44;;;;;;;15.7;7.5;;;;;;;1.5;82.7;99360;;;;
